createdAt,value
2019-04-29T00:00:22.042Z,78.56
2019-04-29T00:02:53.988Z,78.43
2019-04-29T00:05:25.931Z,78.47
2019-04-29T00:07:58.043Z,78.48
2019-04-29T00:10:30.021Z,78.37
2019-04-29T00:13:03.103Z,78.34
2019-04-29T00:16:03.367Z,78.32
2019-04-29T00:18:44.338Z,78.39
2019-04-29T00:21:16.832Z,78.35
2019-04-29T00:23:48.592Z,78.37
2019-04-29T00:26:20.596Z,78.47
2019-04-29T00:28:52.473Z,78.38
2019-04-29T00:31:24.403Z,78.53
2019-04-29T00:33:56.292Z,78.42
2019-04-29T00:36:31.604Z,78.40
2019-04-29T00:39:21.307Z,78.50
2019-04-29T00:42:08.386Z,78.80
2019-04-29T00:44:40.159Z,78.75
2019-04-29T00:47:13.001Z,78.77
2019-04-29T00:49:44.751Z,78.71
2019-04-29T00:52:16.994Z,78.78
2019-04-29T00:54:56.906Z,78.76
2019-04-29T00:57:28.712Z,78.83
2019-04-29T01:00:00.496Z,78.83
2019-04-29T01:02:32.793Z,78.75
2019-04-29T01:05:05.049Z,78.73
2019-04-29T01:07:36.928Z,78.78
2019-04-29T01:10:09.100Z,78.80
2019-04-29T01:12:40.898Z,78.86
2019-04-29T01:15:13.255Z,79.05
2019-04-29T01:17:45.885Z,79.02
2019-04-29T01:20:17.737Z,79.04
2019-04-29T01:22:49.567Z,79.01
2019-04-29T01:25:21.349Z,79.02
2019-04-29T01:28:09.741Z,78.93
2019-04-29T01:31:06.808Z,78.87
2019-04-29T01:33:38.904Z,79.09
2019-04-29T01:36:29.865Z,79.29
2019-04-29T01:39:04.314Z,79.37
2019-04-29T01:41:44.424Z,79.37
2019-04-29T01:44:17.531Z,79.36
2019-04-29T01:46:49.323Z,79.40
2019-04-29T01:49:21.517Z,79.43
2019-04-29T01:51:53.296Z,79.47
2019-04-29T01:54:25.098Z,79.58
2019-04-29T01:56:56.911Z,79.47
2019-04-29T01:59:28.712Z,79.32
2019-04-29T02:02:00.513Z,79.35
2019-04-29T02:04:32.624Z,79.34
2019-04-29T02:07:04.400Z,79.29
2019-04-29T02:09:44.982Z,79.34
2019-04-29T02:12:16.756Z,79.37
2019-04-29T02:14:48.799Z,79.44
2019-04-29T02:17:20.613Z,79.45
2019-04-29T02:19:53.179Z,79.32
2019-04-29T02:22:46.893Z,79.30
2019-04-29T02:25:23.816Z,79.31
2019-04-29T02:27:55.612Z,79.33
2019-04-29T02:30:53.344Z,79.37
2019-04-29T02:33:25.127Z,79.30
2019-04-29T02:35:57.280Z,79.24
2019-04-29T02:38:50.700Z,79.22
2019-04-29T02:41:45.700Z,79.16
2019-04-29T02:44:17.490Z,79.15
2019-04-29T02:46:49.352Z,79.08
2019-04-29T02:49:21.122Z,79.06
2019-04-29T02:51:53.932Z,78.98
2019-04-29T02:54:27.485Z,79.13
2019-04-29T02:57:07.431Z,79.18
2019-04-29T02:59:43.564Z,79.30
2019-04-29T03:02:31.951Z,79.31
2019-04-29T03:05:18.009Z,79.38
2019-04-29T03:07:49.842Z,79.32
2019-04-29T03:10:21.578Z,79.31
2019-04-29T03:12:53.421Z,79.28
2019-04-29T03:15:35.316Z,79.27
2019-04-29T03:18:07.351Z,79.30
2019-04-29T03:21:10.417Z,79.28
2019-04-29T03:23:42.379Z,79.27
2019-04-29T03:26:14.177Z,79.20
2019-04-29T03:28:45.989Z,79.19
2019-04-29T03:31:17.729Z,79.18
2019-04-29T03:33:49.616Z,79.10
2019-04-29T03:36:21.722Z,79.01
2019-04-29T03:38:53.556Z,79.08
2019-04-29T03:41:25.320Z,79.00
2019-04-29T03:43:57.236Z,78.97
2019-04-29T03:46:29.023Z,78.96
2019-04-29T03:49:00.823Z,78.99
2019-04-29T03:51:32.991Z,78.93
2019-04-29T03:54:04.762Z,78.81
2019-04-29T03:56:36.564Z,78.84
2019-04-29T03:59:08.346Z,78.84
2019-04-29T04:01:46.847Z,78.79
2019-04-29T04:04:36.155Z,78.72
2019-04-29T04:07:45.159Z,78.70
2019-04-29T04:10:17.247Z,78.72
2019-04-29T04:12:49.217Z,78.71
2019-04-29T04:15:21.049Z,78.62
2019-04-29T04:18:04.349Z,78.63
2019-04-29T04:20:36.110Z,78.55
2019-04-29T04:23:08.507Z,78.50
2019-04-29T04:25:40.326Z,78.42
2019-04-29T04:28:12.290Z,78.37
2019-04-29T04:30:44.081Z,78.44
2019-04-29T04:33:15.862Z,78.35
2019-04-29T04:35:47.633Z,78.27
2019-04-29T04:38:19.713Z,78.25
2019-04-29T04:41:05.093Z,78.29
2019-04-29T04:43:36.898Z,78.21
2019-04-29T04:46:08.701Z,78.16
2019-04-29T04:48:40.458Z,78.15
2019-04-29T04:51:12.253Z,78.11
2019-04-29T04:53:44.298Z,78.09
2019-04-29T04:56:16.131Z,77.96
2019-04-29T04:58:47.936Z,77.80
2019-04-29T05:01:19.746Z,77.57
2019-04-29T05:03:51.507Z,77.46
2019-04-29T05:06:23.283Z,77.31
2019-04-29T05:08:55.058Z,77.20
2019-04-29T05:11:26.878Z,76.96
2019-04-29T05:13:58.670Z,76.62
2019-04-29T05:16:30.447Z,76.29
2019-04-29T05:19:02.249Z,76.10
2019-04-29T05:21:34.020Z,76.11
2019-04-29T05:24:05.924Z,75.94
2019-04-29T05:26:37.713Z,75.81
2019-04-29T05:29:09.494Z,75.59
2019-04-29T05:31:41.314Z,75.20
2019-04-29T05:34:14.211Z,75.13
2019-04-29T05:37:03.960Z,74.99
2019-04-29T05:39:38.940Z,74.66
2019-04-29T05:42:16.201Z,74.47
2019-04-29T05:45:06.181Z,74.12
2019-04-29T05:47:40.703Z,73.83
2019-04-29T05:50:26.357Z,73.67
2019-04-29T05:53:23.179Z,73.58
2019-04-29T05:55:55.210Z,73.34
2019-04-29T05:58:27.018Z,73.27
2019-04-29T06:01:17.676Z,72.99
2019-04-29T06:03:49.427Z,72.88
2019-04-29T06:06:21.224Z,72.53
2019-04-29T06:08:53.026Z,72.35
2019-04-29T06:11:24.817Z,72.05
2019-04-29T06:13:56.667Z,71.73
2019-04-29T06:16:28.580Z,71.50
2019-04-29T06:19:05.655Z,71.39
2019-04-29T06:21:34.016Z,71.41
2019-04-29T06:24:06.351Z,70.98
2019-04-29T06:26:38.595Z,70.06
2019-04-29T06:29:10.465Z,69.12
2019-04-29T06:31:42.212Z,69.30
2019-04-29T06:34:14.019Z,69.69
2019-04-29T06:36:45.785Z,69.84
2019-04-29T06:39:17.567Z,69.77
2019-04-29T06:41:49.565Z,69.29
2019-04-29T06:44:21.598Z,68.72
2019-04-29T06:46:54.493Z,67.78
2019-04-29T06:49:26.892Z,66.41
2019-04-29T06:51:58.647Z,66.13
2019-04-29T06:54:31.507Z,66.11
2019-04-29T06:57:03.651Z,65.57
2019-04-29T06:59:35.447Z,65.28
2019-04-29T07:02:09.381Z,65.53
2019-04-29T07:04:40.740Z,65.74
2019-04-29T07:07:12.535Z,65.79
2019-04-29T07:09:44.325Z,64.61
2019-04-29T07:12:16.318Z,64.74
2019-04-29T07:14:48.109Z,63.87
2019-04-29T07:17:19.875Z,63.32
2019-04-29T07:19:51.680Z,62.00
2019-04-29T07:22:25.771Z,61.96
2019-04-29T07:24:57.052Z,62.43
2019-04-29T07:27:29.490Z,62.64
2019-04-29T07:30:06.548Z,62.99
2019-04-29T07:32:36.003Z,62.32
2019-04-29T07:35:09.784Z,62.04
2019-04-29T07:37:42.103Z,61.61
2019-04-29T07:40:15.099Z,61.09
2019-04-29T07:42:46.914Z,60.52
2019-04-29T07:45:43.954Z,60.23
2019-04-29T07:48:08.329Z,60.07
2019-04-29T07:50:40.103Z,59.45
2019-04-29T07:53:11.996Z,58.89
2019-04-29T07:55:44.225Z,57.93
2019-04-29T07:58:16.330Z,56.24
2019-04-29T08:00:48.743Z,55.84
2019-04-29T08:03:21.809Z,55.73
2019-04-29T08:05:54.847Z,55.26
2019-04-29T08:08:28.753Z,55.58
2019-04-29T08:11:00.629Z,54.16
2019-04-29T08:13:34.631Z,53.38
2019-04-29T08:16:07.563Z,53.75
2019-04-29T08:18:39.370Z,54.89
2019-04-29T08:21:14.455Z,55.50
2019-04-29T08:23:44.850Z,54.71
2019-04-29T08:26:16.651Z,54.70
2019-04-29T08:28:52.934Z,53.79
2019-04-29T08:31:22.681Z,54.44
2019-04-29T08:33:54.518Z,53.65
2019-04-29T08:36:26.318Z,53.21
2019-04-29T08:39:08.279Z,53.47
2019-04-29T08:41:31.690Z,54.02
2019-04-29T08:44:32.541Z,52.95
2019-04-29T08:47:30.552Z,52.92
2019-04-29T08:49:57.143Z,52.80
2019-04-29T08:52:28.936Z,51.50
2019-04-29T08:55:00.777Z,50.97
2019-04-29T08:57:36.600Z,50.13
2019-04-29T09:00:08.857Z,51.12
2019-04-29T09:02:41.325Z,49.52
2019-04-29T09:05:14.947Z,50.00
2019-04-29T09:07:46.714Z,49.21
2019-04-29T09:10:18.823Z,48.62
2019-04-29T09:12:50.692Z,48.37
2019-04-29T09:15:22.870Z,47.45
2019-04-29T09:17:54.658Z,47.29
2019-04-29T09:20:26.429Z,48.19
2019-04-29T09:23:02.539Z,47.58
2019-04-29T09:26:11.444Z,47.09
2019-04-29T09:28:43.307Z,46.16
2019-04-29T09:31:15.254Z,45.35
2019-04-29T09:33:49.560Z,45.94
2019-04-29T09:36:22.012Z,45.83
2019-04-29T09:38:53.807Z,45.77
2019-04-29T09:41:36.044Z,44.63
2019-04-29T09:44:22.310Z,44.51
2019-04-29T09:46:54.480Z,44.40
2019-04-29T09:49:26.352Z,43.81
2019-04-29T09:51:58.193Z,43.21
2019-04-29T09:54:30.014Z,42.19
2019-04-29T09:57:01.800Z,41.44
2019-04-29T09:59:44.222Z,41.73
2019-04-29T10:02:26.245Z,41.76
2019-04-29T10:05:10.020Z,41.27
2019-04-29T10:07:41.849Z,41.09
2019-04-29T10:10:14.069Z,40.71
2019-04-29T10:12:45.899Z,40.98
2019-04-29T10:15:19.600Z,40.84
2019-04-29T10:18:00.361Z,40.69
2019-04-29T10:20:47.196Z,39.75
2019-04-29T10:23:18.992Z,39.56
2019-04-29T10:25:50.777Z,38.81
2019-04-29T10:28:22.629Z,39.43
2019-04-29T10:30:54.384Z,39.29
2019-04-29T10:33:27.075Z,39.04
2019-04-29T10:35:58.967Z,37.99
2019-04-29T10:38:30.859Z,37.82
2019-04-29T10:41:15.372Z,38.14
2019-04-29T10:44:04.601Z,38.26
2019-04-29T10:47:04.425Z,37.85
2019-04-29T10:49:57.744Z,37.95
2019-04-29T10:52:29.778Z,37.38
2019-04-29T10:55:01.614Z,36.79
2019-04-29T10:57:34.332Z,36.77
2019-04-29T11:00:29.730Z,36.01
2019-04-29T11:03:01.911Z,36.00
2019-04-29T11:05:37.386Z,35.96
2019-04-29T11:08:26.851Z,36.00
2019-04-29T11:11:02.362Z,36.34
2019-04-29T11:13:32.627Z,36.30
2019-04-29T11:16:04.679Z,36.19
2019-04-29T11:18:36.963Z,36.43
2019-04-29T11:21:09.066Z,36.11
2019-04-29T11:24:02.730Z,36.22
2019-04-29T11:26:53.526Z,36.48
2019-04-29T11:29:27.195Z,37.13
2019-04-29T11:32:00.510Z,36.94
2019-04-29T11:34:53.516Z,36.35
2019-04-29T11:37:24.091Z,36.17
2019-04-29T11:39:57.183Z,36.28
2019-04-29T11:42:31.893Z,36.43
2019-04-29T11:45:05.168Z,36.14
2019-04-29T11:47:37.141Z,35.26
2019-04-29T11:50:19.128Z,35.59
2019-04-29T11:52:50.931Z,34.80
2019-04-29T11:55:22.724Z,34.04
2019-04-29T11:57:59.815Z,33.69
2019-04-29T12:01:10.387Z,32.78
2019-04-29T12:03:43.843Z,33.70
2019-04-29T12:06:20.891Z,34.67
2019-04-29T12:08:53.313Z,35.33
2019-04-29T12:11:28.743Z,35.29
2019-04-29T12:14:20.053Z,36.17
2019-04-29T12:16:59.887Z,36.74
2019-04-29T12:19:33.919Z,35.83
2019-04-29T12:22:09.005Z,34.95
2019-04-29T12:24:39.170Z,33.59
2019-04-29T12:27:14.709Z,31.87
2019-04-29T12:29:48.870Z,30.58
2019-04-29T12:32:43.695Z,29.70
2019-04-29T12:35:53.933Z,29.95
2019-04-29T12:38:49.111Z,29.97
2019-04-29T12:41:30.311Z,30.32
2019-04-29T12:44:08.499Z,31.65
2019-04-29T12:46:46.079Z,33.03
2019-04-29T12:49:17.864Z,34.19
2019-04-29T12:51:49.726Z,35.75
2019-04-29T12:54:21.535Z,36.43
2019-04-29T12:56:53.337Z,35.61
2019-04-29T12:59:25.285Z,33.58
2019-04-29T13:02:19.950Z,34.28
2019-04-29T13:05:17.311Z,35.36
2019-04-29T13:08:06.826Z,32.00
2019-04-29T13:10:45.045Z,25.05
2019-04-29T13:13:20.124Z,21.07
2019-04-29T13:16:20.173Z,18.34
2019-04-29T13:19:11.562Z,16.63
2019-04-29T13:21:34.113Z,15.61
2019-04-29T13:24:21.616Z,17.25
2019-04-29T13:26:42.392Z,20.77
2019-04-29T13:29:26.189Z,20.00
2019-04-29T13:31:47.166Z,16.57
2019-04-29T13:34:29.320Z,14.60
2019-04-29T13:37:07.310Z,13.77
2019-04-29T13:39:39.721Z,13.55
2019-04-29T13:42:09.154Z,15.93
2019-04-29T13:44:42.718Z,18.97
2019-04-29T13:47:37.558Z,16.44
2019-04-29T13:50:38.775Z,14.02
2019-04-29T13:52:58.478Z,13.67
2019-04-29T13:55:47.629Z,12.43
2019-04-29T13:58:03.747Z,12.46
2019-04-29T14:00:55.607Z,11.59
2019-04-29T14:03:49.399Z,11.78
2019-04-29T14:06:20.330Z,11.49
2019-04-29T14:08:54.115Z,12.07
2019-04-29T14:11:27.342Z,14.87
2019-04-29T14:13:59.427Z,17.72
2019-04-29T14:16:31.421Z,20.19
2019-04-29T14:19:03.326Z,22.08
2019-04-29T14:21:35.101Z,23.54
2019-04-29T14:24:07.045Z,24.48
2019-04-29T14:26:42.003Z,24.79
2019-04-29T14:29:13.784Z,25.67
2019-04-29T14:31:49.678Z,27.27
2019-04-29T14:34:30.621Z,29.93
2019-04-29T14:37:19.648Z,32.97
2019-04-29T14:39:37.869Z,35.94
2019-04-29T14:42:17.825Z,38.33
2019-04-29T14:45:07.389Z,40.13
2019-04-29T14:47:47.805Z,41.09
2019-04-29T14:50:20.712Z,41.48
2019-04-29T14:52:52.697Z,41.89
2019-04-29T14:55:25.492Z,42.45
2019-04-29T14:57:58.079Z,41.76
2019-04-29T15:00:55.781Z,41.73
2019-04-29T15:03:29.774Z,42.02
2019-04-29T15:06:01.743Z,42.89
2019-04-29T15:08:36.225Z,43.89
2019-04-29T15:11:08.861Z,44.13
2019-04-29T15:13:43.172Z,45.96
2019-04-29T15:16:21.583Z,46.38
2019-04-29T15:19:12.719Z,45.97
2019-04-29T15:21:52.691Z,45.34
2019-04-29T15:24:27.499Z,45.80
2019-04-29T15:26:57.993Z,46.28
2019-04-29T15:29:29.825Z,47.07
2019-04-29T15:32:01.604Z,48.06
2019-04-29T15:34:33.440Z,48.37
2019-04-29T15:37:05.330Z,48.47
2019-04-29T15:39:40.822Z,48.49
2019-04-29T15:42:10.604Z,48.85
2019-04-29T15:44:42.428Z,48.86
2019-04-29T15:47:15.274Z,49.54
2019-04-29T15:49:47.103Z,44.14
2019-04-29T15:52:20.893Z,38.42
2019-04-29T15:54:52.737Z,35.26
2019-04-29T15:57:25.089Z,31.69
2019-04-29T15:59:59.913Z,30.00
2019-04-29T16:02:30.458Z,29.76
2019-04-29T16:05:15.347Z,29.55
2019-04-29T16:08:08.876Z,29.32
2019-04-29T16:10:57.365Z,34.63
2019-04-29T16:13:27.776Z,38.57
2019-04-29T16:15:57.455Z,40.68
2019-04-29T16:18:29.814Z,42.88
2019-04-29T16:21:01.617Z,44.03
2019-04-29T16:23:38.664Z,44.65
2019-04-29T16:26:07.136Z,45.51
2019-04-29T16:28:40.236Z,46.36
2019-04-29T16:31:14.401Z,47.31
2019-04-29T16:33:47.324Z,47.86
2019-04-29T16:36:19.478Z,48.50
2019-04-29T16:38:53.351Z,48.91
2019-04-29T16:41:42.347Z,49.38
2019-04-29T16:44:33.978Z,49.89
2019-04-29T16:46:48.206Z,50.23
2019-04-29T16:49:21.764Z,50.91
2019-04-29T16:51:55.830Z,51.19
2019-04-29T16:54:28.557Z,51.40
2019-04-29T16:57:00.681Z,51.68
2019-04-29T16:59:32.773Z,51.95
2019-04-29T17:02:05.251Z,52.32
2019-04-29T17:04:37.102Z,52.70
2019-04-29T17:07:13.088Z,53.01
2019-04-29T17:09:52.208Z,53.02
2019-04-29T17:12:29.342Z,53.02
2019-04-29T17:15:04.805Z,53.25
2019-04-29T17:17:33.540Z,53.28
2019-04-29T17:20:06.689Z,53.46
2019-04-29T17:22:43.261Z,53.67
2019-04-29T17:25:14.596Z,53.90
2019-04-29T17:27:56.096Z,54.20
2019-04-29T17:30:49.010Z,54.45
2019-04-29T17:33:30.897Z,55.05
2019-04-29T17:36:03.656Z,55.80
2019-04-29T17:38:35.562Z,56.36
2019-04-29T17:41:07.551Z,56.42
2019-04-29T17:43:57.379Z,56.65
2019-04-29T17:46:43.406Z,56.87
2019-04-29T17:49:30.427Z,57.33
2019-04-29T17:52:02.902Z,57.66
2019-04-29T17:54:39.578Z,57.92
2019-04-29T17:57:28.633Z,58.38
2019-04-29T18:00:08.786Z,58.44
2019-04-29T18:03:12.103Z,58.85
2019-04-29T18:05:59.559Z,59.42
2019-04-29T18:09:05.467Z,59.82
2019-04-29T18:11:50.355Z,60.26
2019-04-29T18:14:12.771Z,60.52
2019-04-29T18:16:47.853Z,60.53
2019-04-29T18:19:26.682Z,60.70
2019-04-29T18:22:17.338Z,61.11
2019-04-29T18:25:11.649Z,61.18
2019-04-29T18:27:45.063Z,61.49
2019-04-29T18:30:27.379Z,61.84
2019-04-29T18:32:52.635Z,62.06
2019-04-29T18:35:25.561Z,62.25
2019-04-29T18:37:57.461Z,62.42
2019-04-29T18:40:35.540Z,62.60
2019-04-29T18:43:04.971Z,62.79
2019-04-29T18:45:36.932Z,62.92
2019-04-29T18:48:16.604Z,63.08
2019-04-29T18:50:43.638Z,63.42
2019-04-29T18:53:15.664Z,63.62
2019-04-29T18:55:47.515Z,63.62
2019-04-29T18:58:19.346Z,63.53
2019-04-29T19:00:53.645Z,63.68
2019-04-29T19:04:00.186Z,63.56
2019-04-29T19:06:32.419Z,63.67
2019-04-29T19:09:17.018Z,63.96
2019-04-29T19:11:40.538Z,64.19
2019-04-29T19:14:12.378Z,64.29
2019-04-29T19:16:45.810Z,64.38
2019-04-29T19:19:18.997Z,64.60
2019-04-29T19:21:50.835Z,64.83
2019-04-29T19:24:22.877Z,65.11
2019-04-29T19:27:00.512Z,65.40
2019-04-29T19:29:28.797Z,65.53
2019-04-29T19:32:00.596Z,65.69
2019-04-29T19:34:40.824Z,65.66
2019-04-29T19:37:06.326Z,65.86
2019-04-29T19:39:38.499Z,65.90
2019-04-29T19:42:10.457Z,66.10
2019-04-29T19:44:42.251Z,66.28
2019-04-29T19:47:15.267Z,66.35
2019-04-29T19:49:47.546Z,66.47
2019-04-29T19:52:30.483Z,66.60
2019-04-29T19:54:53.365Z,66.67
2019-04-29T19:57:25.251Z,66.76
2019-04-29T19:59:57.652Z,66.89
2019-04-29T20:02:30.153Z,67.08
2019-04-29T20:05:17.408Z,67.11
2019-04-29T20:07:51.001Z,67.24
2019-04-29T20:10:25.976Z,67.17
2019-04-29T20:12:57.727Z,67.22
2019-04-29T20:15:33.793Z,67.31
2019-04-29T20:18:37.981Z,67.37
2019-04-29T20:21:20.767Z,67.63
2019-04-29T20:23:46.612Z,67.82
2019-04-29T20:26:28.715Z,67.95
2019-04-29T20:28:55.650Z,67.91
2019-04-29T20:31:26.232Z,67.91
2019-04-29T20:34:01.254Z,67.99
2019-04-29T20:36:40.883Z,68.02
2019-04-29T20:39:06.906Z,68.20
2019-04-29T20:41:44.441Z,68.28
2019-04-29T20:44:16.290Z,68.45
2019-04-29T20:47:13.164Z,68.40
2019-04-29T20:49:23.167Z,68.46
2019-04-29T20:52:00.822Z,68.49
2019-04-29T20:54:35.425Z,68.68
2019-04-29T20:57:17.474Z,68.61
2019-04-29T20:59:42.150Z,68.66
2019-04-29T21:02:29.476Z,68.89
2019-04-29T21:04:48.207Z,68.87
2019-04-29T21:07:23.941Z,68.79
2019-04-29T21:09:55.777Z,68.88
2019-04-29T21:12:45.802Z,68.85
2019-04-29T21:15:24.924Z,68.91
2019-04-29T21:17:58.698Z,68.97
2019-04-29T21:20:30.542Z,69.03
2019-04-29T21:23:02.379Z,69.08
2019-04-29T21:25:35.637Z,69.29
2019-04-29T21:28:08.198Z,69.25
2019-04-29T21:30:42.629Z,69.22
2019-04-29T21:33:17.947Z,69.30
2019-04-29T21:35:57.924Z,69.43
2019-04-29T21:38:53.011Z,69.52
2019-04-29T21:41:31.111Z,69.53
2019-04-29T21:44:04.195Z,69.55
2019-04-29T21:46:37.271Z,69.55
2019-04-29T21:49:11.674Z,69.68
2019-04-29T21:51:46.593Z,69.64
2019-04-29T21:54:16.589Z,69.67
2019-04-29T21:56:48.633Z,69.76
2019-04-29T21:59:20.449Z,69.70
2019-04-29T22:01:52.539Z,69.66
2019-04-29T22:04:24.547Z,69.72
2019-04-29T22:06:59.883Z,69.70
2019-04-29T22:09:36.097Z,69.88
2019-04-29T22:12:05.534Z,70.05
2019-04-29T22:14:37.600Z,70.12
2019-04-29T22:17:09.361Z,70.20
2019-04-29T22:19:41.179Z,70.40
2019-04-29T22:22:13.028Z,70.36
2019-04-29T22:24:45.852Z,70.45
2019-04-29T22:27:17.789Z,70.65
2019-04-29T22:29:49.576Z,70.86
2019-04-29T22:32:21.400Z,71.03
2019-04-29T22:34:54.415Z,71.08
2019-04-29T22:37:29.706Z,71.20
2019-04-29T22:40:03.088Z,71.17
2019-04-29T22:42:52.550Z,71.11
2019-04-29T22:45:29.578Z,71.15
2019-04-29T22:48:14.617Z,71.28
2019-04-29T22:50:38.169Z,71.20
2019-04-29T22:53:08.992Z,71.04
2019-04-29T22:55:40.974Z,71.24
2019-04-29T22:58:12.816Z,71.12
2019-04-29T23:00:44.661Z,71.11
2019-04-29T23:03:16.421Z,71.29
2019-04-29T23:05:48.184Z,71.18
2019-04-29T23:08:20.008Z,71.15
2019-04-29T23:10:51.784Z,71.13
2019-04-29T23:13:26.847Z,71.20
2019-04-29T23:16:01.048Z,71.47
2019-04-29T23:18:38.508Z,71.32
2019-04-29T23:21:22.733Z,71.26
2019-04-29T23:24:07.087Z,71.05
2019-04-29T23:26:42.315Z,71.08
2019-04-29T23:29:12.725Z,71.06
2019-04-29T23:31:45.396Z,71.00
2019-04-29T23:34:17.404Z,71.10
2019-04-29T23:36:50.092Z,71.14
2019-04-29T23:39:22.049Z,71.21
2019-04-29T23:41:55.401Z,71.36
2019-04-29T23:44:27.634Z,71.32
2019-04-29T23:46:59.405Z,71.21
2019-04-29T23:49:36.980Z,71.12
2019-04-29T23:52:06.883Z,71.04
2019-04-29T23:54:44.428Z,71.16
2019-04-29T23:57:23.532Z,71.17
